createdAt,value
2019-04-26T00:01:52.042Z,91.55
2019-04-26T00:04:47.403Z,72.82
2019-04-26T00:07:42.267Z,74.12
2019-04-26T00:11:04.098Z,81.57
2019-04-26T00:14:23.059Z,73.30
2019-04-26T00:17:30.738Z,71.02
2019-04-26T00:20:26.082Z,86.87
2019-04-26T00:23:20.974Z,80.03
2019-04-26T00:26:15.826Z,75.32
2019-04-26T00:29:12.606Z,92.15
2019-04-26T00:32:08.117Z,105.52
2019-04-26T00:35:03.196Z,98.20
2019-04-26T00:37:58.539Z,66.55
2019-04-26T00:40:54.028Z,92.90
2019-04-26T00:43:48.809Z,74.35
2019-04-26T00:46:45.386Z,79.58
2019-04-26T00:49:43.867Z,106.15
2019-04-26T00:52:37.882Z,84.28
2019-04-26T00:55:34.534Z,88.35
2019-04-26T00:58:29.957Z,75.95
2019-04-26T01:01:28.058Z,76.07
2019-04-26T01:04:23.610Z,85.50
2019-04-26T01:07:19.445Z,76.25
2019-04-26T01:10:16.180Z,79.20
2019-04-26T01:13:10.728Z,84.35
2019-04-26T01:16:06.360Z,73.45
2019-04-26T01:19:02.459Z,83.75
2019-04-26T01:22:00.634Z,78.45
2019-04-26T01:24:56.839Z,99.87
2019-04-26T01:27:52.152Z,87.82
2019-04-26T01:30:48.646Z,85.35
2019-04-26T01:33:45.879Z,97.85
2019-04-26T01:36:42.384Z,104.78
2019-04-26T01:39:39.430Z,79.22
2019-04-26T01:42:45.433Z,85.35
2019-04-26T01:45:46.822Z,84.37
2019-04-26T01:48:49.267Z,86.60
2019-04-26T01:52:08.344Z,93.82
2019-04-26T01:55:03.235Z,87.08
2019-04-26T01:57:59.119Z,75.17
2019-04-26T02:01:01.822Z,82.95
2019-04-26T02:03:56.424Z,83.05
2019-04-26T02:06:51.678Z,70.40
2019-04-26T02:09:46.960Z,77.17
2019-04-26T02:12:42.639Z,77.35
2019-04-26T02:15:37.578Z,95.97
2019-04-26T02:18:33.569Z,72.62
2019-04-26T02:21:38.045Z,80.85
2019-04-26T02:24:42.942Z,69.95
2019-04-26T02:27:38.608Z,69.97
2019-04-26T02:30:34.717Z,68.47
2019-04-26T02:33:31.151Z,74.12
2019-04-26T02:36:44.991Z,77.30
2019-04-26T02:39:26.291Z,58.75
2019-04-26T02:42:30.787Z,70.42
2019-04-26T02:46:11.112Z,64.67
2019-04-26T02:49:24.928Z,66.97
2019-04-26T02:52:32.019Z,66.05
2019-04-26T02:56:16.494Z,71.80
2019-04-26T02:59:40.967Z,72.17
2019-04-26T03:02:37.305Z,69.50
2019-04-26T03:05:33.583Z,73.25
2019-04-26T03:08:29.861Z,69.10
2019-04-26T03:11:26.206Z,73.22
2019-04-26T03:15:12.527Z,66.53
2019-04-26T03:18:02.532Z,75.17
2019-04-26T03:21:02.480Z,66.60
2019-04-26T03:24:06.742Z,77.53
2019-04-26T03:27:55.746Z,87.50
2019-04-26T03:31:05.390Z,79.87
2019-04-26T03:34:40.550Z,78.70
2019-04-26T03:38:04.791Z,88.85
2019-04-26T03:41:07.330Z,83.37
2019-04-26T03:44:27.847Z,79.55
2019-04-26T03:47:25.781Z,70.12
2019-04-26T03:50:23.944Z,67.58
2019-04-26T03:53:54.678Z,58.40
2019-04-26T03:57:13.170Z,52.20
2019-04-26T04:00:23.509Z,37.42
2019-04-26T04:03:39.421Z,41.83
2019-04-26T04:06:52.401Z,62.93
2019-04-26T04:09:30.881Z,49.25
2019-04-26T04:12:47.985Z,52.08
2019-04-26T04:15:48.306Z,48.13
2019-04-26T04:18:43.778Z,49.27
2019-04-26T04:21:51.380Z,44.20
2019-04-26T04:24:55.491Z,50.95
2019-04-26T04:28:09.724Z,45.03
2019-04-26T04:31:16.032Z,38.50
2019-04-26T04:34:29.412Z,46.92
2019-04-26T04:37:25.561Z,46.92
2019-04-26T04:40:43.138Z,44.80
2019-04-26T04:43:45.214Z,43.87
2019-04-26T04:47:22.382Z,45.03
2019-04-26T04:50:35.068Z,51.85
2019-04-26T04:54:00.286Z,57.13
2019-04-26T04:57:08.292Z,55.33
2019-04-26T05:00:18.448Z,66.72
2019-04-26T05:03:29.414Z,65.67
2019-04-26T05:07:09.410Z,56.35
2019-04-26T05:10:33.449Z,54.40
2019-04-26T05:13:55.718Z,68.80
2019-04-26T05:17:23.792Z,60.83
2019-04-26T05:20:53.425Z,42.05
2019-04-26T05:24:19.542Z,47.73
2019-04-26T05:27:55.105Z,56.25
2019-04-26T05:31:38.120Z,45.92
2019-04-26T05:34:50.822Z,48.52
2019-04-26T05:38:18.486Z,48.17
2019-04-26T05:41:42.553Z,53.83
2019-04-26T05:45:24.493Z,50.90
2019-04-26T05:49:08.900Z,43.63
2019-04-26T05:52:43.273Z,47.50
2019-04-26T05:56:29.540Z,41.20
2019-04-26T05:59:44.134Z,56.50
2019-04-26T06:03:33.690Z,42.98
2019-04-26T06:06:43.736Z,47.25
2019-04-26T06:10:17.089Z,70.92
2019-04-26T06:14:01.954Z,52.75
2019-04-26T06:17:34.922Z,57.73
2019-04-26T06:20:54.086Z,55.65
2019-04-26T06:24:29.607Z,51.15
2019-04-26T06:31:44.729Z,57.05
2019-04-26T06:35:04.490Z,65.35
2019-04-26T06:38:22.389Z,53.05
2019-04-26T06:42:03.159Z,57.30
2019-04-26T06:45:50.763Z,59.73
2019-04-26T06:49:35.595Z,54.13
2019-04-26T06:52:32.925Z,57.90
2019-04-26T06:55:33.934Z,63.95
2019-04-26T06:59:17.065Z,54.18
2019-04-26T07:02:48.832Z,55.50
2019-04-26T07:05:52.311Z,70.55
2019-04-26T07:09:03.636Z,63.73
2019-04-26T07:12:34.117Z,58.40
2019-04-26T07:16:16.435Z,69.82
2019-04-26T07:19:30.151Z,64.42
2019-04-26T07:23:02.086Z,68.85
2019-04-26T07:26:38.566Z,80.85
2019-04-26T07:30:27.855Z,59.67
2019-04-26T07:33:51.773Z,51.37
2019-04-26T07:37:50.947Z,58.70
2019-04-26T07:41:45.513Z,45.80
2019-04-26T07:45:26.676Z,45.08
2019-04-26T07:48:57.352Z,50.73
2019-04-26T07:52:28.035Z,51.77
2019-04-26T07:55:39.529Z,49.15
2019-04-26T07:59:40.049Z,66.70
2019-04-26T08:03:10.807Z,54.67
2019-04-26T08:06:32.628Z,50.50
2019-04-26T08:09:30.430Z,48.85
2019-04-26T08:12:31.547Z,49.50
2019-04-26T08:15:45.721Z,42.62
2019-04-26T08:19:01.851Z,41.90
2019-04-26T08:22:15.150Z,45.98
2019-04-26T08:24:58.655Z,45.98
2019-04-26T08:27:56.486Z,43.13
2019-04-26T08:30:59.927Z,45.67
2019-04-26T08:34:03.126Z,48.40
2019-04-26T08:37:09.106Z,42.78
2019-04-26T08:40:16.407Z,47.33
2019-04-26T08:43:30.752Z,49.25
2019-04-26T08:46:56.941Z,44.63
2019-04-26T08:50:09.700Z,52.03
2019-04-26T08:53:08.363Z,37.40
2019-04-26T08:56:07.609Z,41.58
2019-04-26T08:59:08.666Z,43.68
2019-04-26T09:02:21.714Z,38.23
2019-04-26T09:05:41.974Z,41.20
2019-04-26T09:08:43.485Z,36.75
2019-04-26T09:11:41.294Z,40.10
2019-04-26T09:14:40.619Z,52.95
2019-04-26T09:17:36.240Z,48.30
2019-04-26T09:20:42.796Z,50.20
2019-04-26T09:23:59.671Z,47.58
2019-04-26T09:27:26.151Z,47.38
2019-04-26T09:30:52.473Z,51.77
2019-04-26T09:33:55.925Z,46.28
2019-04-26T09:36:56.682Z,37.80
2019-04-26T09:39:52.860Z,39.92
2019-04-26T09:43:05.812Z,42.50
2019-04-26T09:46:19.061Z,48.25
2019-04-26T09:49:42.545Z,55.43
2019-04-26T09:52:44.649Z,47.40
2019-04-26T09:55:40.359Z,47.85
2019-04-26T09:58:40.356Z,45.48
2019-04-26T10:01:38.406Z,42.65
2019-04-26T10:04:35.090Z,45.30
2019-04-26T10:07:37.574Z,46.88
2019-04-26T10:10:36.465Z,47.70
2019-04-26T10:13:49.365Z,47.75
2019-04-26T10:16:55.299Z,54.70
2019-04-26T10:19:55.289Z,50.23
2019-04-26T10:23:00.313Z,42.93
2019-04-26T10:26:00.534Z,43.95
2019-04-26T10:28:57.034Z,50.15
2019-04-26T10:31:55.007Z,48.83
2019-04-26T10:34:56.678Z,51.25
2019-04-26T10:37:54.886Z,58.17
2019-04-26T10:40:53.098Z,44.77
2019-04-26T10:43:50.834Z,50.40
2019-04-26T10:46:55.296Z,52.27
2019-04-26T10:49:54.318Z,42.75
2019-04-26T10:52:55.729Z,60.55
2019-04-26T10:56:24.108Z,61.40
2019-04-26T10:59:26.472Z,41.05
2019-04-26T11:02:27.978Z,56.35
2019-04-26T11:05:26.574Z,45.52
2019-04-26T11:08:23.441Z,49.80
2019-04-26T11:11:20.420Z,47.17
2019-04-26T11:14:22.335Z,60.50
2019-04-26T11:17:17.785Z,50.55
2019-04-26T11:20:16.582Z,51.15
2019-04-26T11:23:18.162Z,45.15
2019-04-26T11:26:16.633Z,53.25
2019-04-26T11:29:16.505Z,63.00
2019-04-26T11:35:57.824Z,53.85
2019-04-26T11:38:56.653Z,53.45
2019-04-26T11:42:02.110Z,47.43
2019-04-26T11:51:34.388Z,48.30
2019-04-26T11:54:36.077Z,66.30
2019-04-26T11:57:47.571Z,64.05
2019-04-26T12:00:47.707Z,57.67
2019-04-26T12:03:51.609Z,60.10
2019-04-26T12:06:56.462Z,60.40
2019-04-26T12:09:56.074Z,64.35
2019-04-26T12:13:04.869Z,53.15
2019-04-26T12:15:54.292Z,74.62
2019-04-26T12:18:53.540Z,73.40
2019-04-26T12:21:51.768Z,51.68
2019-04-26T12:24:50.683Z,79.03
2019-04-26T12:27:53.542Z,87.92
2019-04-26T12:31:02.703Z,64.70
2019-04-26T12:34:02.994Z,60.78
2019-04-26T12:37:03.027Z,76.95
2019-04-26T12:40:01.925Z,66.87
2019-04-26T12:43:01.279Z,65.03
2019-04-26T12:46:31.846Z,73.65
2019-04-26T12:49:35.423Z,68.57
2019-04-26T12:52:33.262Z,63.02
2019-04-26T12:55:32.048Z,65.62
2019-04-26T12:58:31.103Z,101.07
2019-04-26T13:01:30.869Z,76.47
2019-04-26T13:04:35.844Z,77.62
2019-04-26T13:07:25.826Z,72.12
2019-04-26T13:10:39.875Z,76.07
2019-04-26T13:13:55.345Z,84.37
2019-04-26T13:17:01.145Z,67.72
2019-04-26T13:19:55.568Z,63.25
2019-04-26T13:22:54.306Z,64.45
2019-04-26T13:25:50.437Z,59.50
2019-04-26T13:28:48.089Z,62.60
2019-04-26T13:31:47.496Z,65.42
2019-04-26T13:34:45.504Z,60.10
2019-04-26T13:37:44.665Z,59.15
2019-04-26T13:40:40.269Z,56.85
2019-04-26T13:43:35.564Z,53.90
2019-04-26T13:47:07.961Z,60.67
2019-04-26T13:50:13.276Z,60.67
2019-04-26T13:53:12.265Z,56.10
2019-04-26T13:56:07.859Z,63.10
2019-04-26T13:59:03.519Z,64.67
2019-04-26T14:02:10.808Z,63.40
2019-04-26T14:04:56.085Z,55.80
2019-04-26T14:07:51.317Z,62.30
2019-04-26T14:10:49.730Z,60.70
2019-04-26T14:13:41.956Z,69.70
2019-04-26T14:16:37.172Z,76.00
2019-04-26T14:19:33.442Z,74.70
2019-04-26T14:22:37.028Z,81.67
2019-04-26T14:25:33.472Z,60.67
2019-04-26T14:28:29.816Z,86.75
2019-04-26T14:31:24.990Z,50.98
2019-04-26T14:34:20.984Z,61.20
2019-04-26T14:37:16.737Z,60.88
2019-04-26T14:40:17.180Z,68.95
2019-04-26T14:43:12.022Z,62.62
2019-04-26T14:46:10.526Z,62.75
2019-04-26T14:49:08.110Z,59.35
2019-04-26T14:52:06.410Z,71.65
2019-04-26T14:55:05.937Z,74.22
2019-04-26T14:58:02.048Z,75.12
2019-04-26T15:01:00.817Z,78.33
2019-04-26T15:04:14.223Z,76.50
2019-04-26T15:07:10.131Z,85.57
2019-04-26T15:10:06.841Z,99.42
2019-04-26T15:13:14.309Z,82.30
2019-04-26T15:15:58.023Z,68.20
2019-04-26T15:18:54.067Z,72.47
2019-04-26T15:21:52.311Z,68.92
2019-04-26T15:24:46.742Z,72.05
2019-04-26T15:27:44.118Z,72.82
2019-04-26T15:30:44.538Z,90.45
2019-04-26T15:33:37.081Z,84.52
2019-04-26T15:36:33.473Z,76.10
2019-04-26T15:39:55.135Z,70.25
2019-04-26T15:43:02.641Z,66.53
2019-04-26T15:46:12.518Z,72.12
2019-04-26T15:49:36.366Z,74.30
2019-04-26T15:52:34.119Z,70.05
2019-04-26T15:55:39.689Z,64.82
2019-04-26T15:58:29.903Z,64.07
2019-04-26T16:01:26.708Z,76.02
2019-04-26T16:04:23.932Z,65.03
2019-04-26T16:07:27.410Z,68.00
2019-04-26T16:10:18.639Z,76.40
2019-04-26T16:13:20.935Z,77.97
2019-04-26T16:16:16.591Z,63.60
2019-04-26T16:19:17.600Z,67.53
2019-04-26T16:22:17.687Z,65.85
2019-04-26T16:25:18.661Z,83.67
2019-04-26T16:28:44.488Z,75.17
2019-04-26T16:31:52.907Z,61.53
2019-04-26T16:34:52.840Z,69.12
2019-04-26T16:37:48.630Z,73.07
2019-04-26T16:40:50.641Z,74.35
2019-04-26T16:43:53.114Z,62.10
2019-04-26T16:46:44.072Z,68.00
2019-04-26T16:49:43.411Z,80.97
2019-04-26T16:52:43.535Z,65.45
2019-04-26T16:55:49.217Z,74.70
2019-04-26T16:58:38.129Z,61.68
2019-04-26T17:01:38.096Z,58.25
2019-04-26T17:04:36.334Z,44.95
2019-04-26T17:07:32.909Z,54.65
2019-04-26T17:10:29.466Z,61.25
2019-04-26T17:13:29.928Z,64.47
2019-04-26T17:16:25.656Z,77.97
2019-04-26T17:19:22.973Z,61.68
2019-04-26T17:22:41.797Z,62.20
2019-04-26T17:25:47.301Z,65.28
2019-04-26T17:28:43.944Z,62.48
2019-04-26T17:31:41.067Z,56.73
2019-04-26T17:34:36.852Z,56.30
2019-04-26T17:37:33.660Z,67.37
2019-04-26T17:40:36.174Z,62.85
2019-04-26T17:43:28.487Z,55.28
2019-04-26T17:46:25.350Z,58.55
2019-04-26T17:49:26.965Z,65.10
2019-04-26T17:52:20.281Z,66.67
2019-04-26T17:55:16.340Z,68.67
2019-04-26T17:58:17.354Z,54.50
2019-04-26T18:01:09.487Z,71.82
2019-04-26T18:04:06.127Z,68.15
2019-04-26T18:07:08.131Z,59.55
2019-04-26T18:10:02.371Z,66.00
2019-04-26T18:12:56.531Z,59.55
2019-04-26T18:15:53.444Z,61.63
2019-04-26T18:19:02.432Z,72.35
2019-04-26T18:22:14.703Z,65.45
2019-04-26T18:25:12.694Z,69.32
2019-04-26T18:28:08.699Z,64.58
2019-04-26T18:31:05.605Z,74.55
2019-04-26T18:34:01.793Z,74.25
2019-04-26T18:36:57.407Z,181.67
2019-04-26T18:39:57.340Z,74.70
2019-04-26T18:42:50.158Z,75.20
2019-04-26T18:45:47.892Z,64.97
2019-04-26T18:48:46.022Z,73.42
2019-04-26T18:51:47.843Z,64.60
2019-04-26T18:54:59.202Z,62.75
2019-04-26T18:58:01.522Z,70.37
2019-04-26T19:00:53.100Z,63.90
2019-04-26T19:03:51.022Z,65.42
2019-04-26T19:06:47.478Z,65.95
2019-04-26T19:09:58.554Z,60.88
2019-04-26T19:12:43.687Z,70.28
2019-04-26T19:15:54.234Z,70.40
2019-04-26T19:18:56.674Z,66.42
2019-04-26T19:22:00.675Z,55.25
2019-04-26T19:24:57.478Z,64.97
2019-04-26T19:27:53.924Z,67.30
2019-04-26T19:30:50.974Z,61.13
2019-04-26T19:33:43.681Z,80.20
2019-04-26T19:36:41.950Z,69.40
2019-04-26T19:39:37.826Z,63.13
2019-04-26T19:42:34.587Z,66.60
2019-04-26T19:45:49.598Z,68.80
2019-04-26T19:49:14.471Z,66.62
2019-04-26T19:52:22.149Z,64.22
2019-04-26T19:55:51.328Z,61.80
2019-04-26T19:58:50.713Z,59.45
2019-04-26T20:01:47.830Z,63.87
2019-04-26T20:04:46.384Z,69.17
2019-04-26T20:07:43.883Z,62.90
2019-04-26T20:10:45.424Z,64.50
2019-04-26T20:13:38.308Z,62.75
2019-04-26T20:16:36.479Z,55.85
2019-04-26T20:19:37.228Z,63.90
2019-04-26T20:22:30.577Z,56.68
2019-04-26T20:25:26.447Z,69.30
2019-04-26T20:28:22.783Z,57.90
2019-04-26T20:31:30.131Z,66.07
2019-04-26T20:34:26.361Z,57.80
2019-04-26T20:37:25.662Z,57.27
2019-04-26T20:40:22.515Z,64.22
2019-04-26T20:43:24.451Z,60.50
2019-04-26T20:46:15.215Z,63.78
2019-04-26T20:49:09.304Z,60.33
2019-04-26T20:52:04.595Z,60.33
2019-04-26T20:55:00.917Z,60.83
2019-04-26T20:57:59.681Z,46.48
2019-04-26T21:00:54.885Z,62.88
2019-04-26T21:03:51.842Z,60.05
2019-04-26T21:06:48.867Z,61.50
2019-04-26T21:09:45.399Z,57.98
2019-04-26T21:12:43.175Z,72.40
2019-04-26T21:15:53.421Z,64.53
2019-04-26T21:18:40.306Z,73.02
2019-04-26T21:21:43.505Z,57.40
2019-04-26T21:24:37.774Z,57.25
2019-04-26T21:27:47.801Z,58.05
2019-04-26T21:30:51.470Z,56.20
2019-04-26T21:33:50.804Z,62.00
2019-04-26T21:37:23.336Z,58.98
2019-04-26T21:40:40.997Z,71.60
2019-04-26T21:43:39.401Z,58.13
2019-04-26T21:46:37.742Z,56.30
2019-04-26T21:49:37.958Z,60.88
2019-04-26T21:52:34.288Z,58.00
2019-04-26T21:55:35.282Z,66.02
2019-04-26T21:58:29.648Z,74.65
2019-04-26T22:01:27.388Z,61.85
2019-04-26T22:04:28.635Z,63.85
2019-04-26T22:07:24.156Z,54.08
2019-04-26T22:10:43.673Z,56.50
2019-04-26T22:13:51.775Z,60.48
2019-04-26T22:17:02.200Z,68.02
2019-04-26T22:20:17.934Z,55.48
2019-04-26T22:23:25.899Z,69.17
2019-04-26T22:26:20.937Z,56.00
2019-04-26T22:29:16.943Z,55.90
2019-04-26T22:32:15.916Z,59.23
2019-04-26T22:35:19.914Z,49.03
2019-04-26T22:38:13.027Z,55.43
2019-04-26T22:41:13.322Z,54.03
2019-04-26T22:44:17.767Z,66.02
2019-04-26T22:47:45.065Z,53.48
2019-04-26T22:50:43.563Z,51.53
2019-04-26T22:53:38.459Z,56.00
2019-04-26T22:56:37.254Z,65.15
2019-04-26T22:59:31.079Z,50.15
2019-04-26T23:02:27.565Z,48.17
2019-04-26T23:05:23.618Z,53.68
2019-04-26T23:08:19.460Z,51.05
2019-04-26T23:11:15.849Z,56.05
2019-04-26T23:14:25.718Z,47.53
2019-04-26T23:17:35.704Z,53.52
2019-04-26T23:20:38.874Z,51.53
2019-04-26T23:23:37.167Z,43.40
2019-04-26T23:26:33.351Z,49.55
2019-04-26T23:29:29.346Z,42.90
2019-04-26T23:32:25.592Z,45.20
2019-04-26T23:35:21.877Z,42.40
2019-04-26T23:38:17.851Z,48.40
2019-04-26T23:41:14.626Z,54.42
2019-04-26T23:44:10.892Z,61.33
2019-04-26T23:47:18.606Z,56.02
2019-04-26T23:50:04.040Z,54.67
2019-04-26T23:53:02.944Z,79.62
2019-04-26T23:55:59.300Z,48.05
2019-04-26T23:58:56.019Z,52.45
